createdAt,value
2023-03-01T00:01:37.440Z,215599.00
2023-03-01T00:07:39.719Z,215599.00
2023-03-01T00:13:42.963Z,215571.00
2023-03-01T00:19:45.222Z,215612.00
2023-03-01T00:25:47.613Z,215646.00
2023-03-01T00:31:49.802Z,215646.00
2023-03-01T00:37:58.847Z,215624.00
2023-03-01T00:44:00.996Z,215646.00
2023-03-01T00:50:03.261Z,215680.00
2023-03-01T00:56:07.064Z,215626.00
2023-03-01T01:02:09.308Z,215624.00
2023-03-01T01:08:11.381Z,215626.00
2023-03-01T01:14:13.876Z,215612.00
2023-03-01T01:20:16.086Z,215624.00
2023-03-01T01:26:21.534Z,215599.00
2023-03-01T01:32:27.172Z,215618.00
2023-03-01T01:38:29.519Z,215612.00
2023-03-01T01:44:31.914Z,215571.00
2023-03-01T01:50:39.526Z,215624.00
2023-03-01T01:56:45.916Z,215585.00
2023-03-01T02:02:53.174Z,215591.00
2023-03-01T02:08:56.528Z,215571.00
2023-03-01T02:14:58.903Z,215546.00
2023-03-01T02:21:25.516Z,215518.00
2023-03-01T02:27:37.768Z,215544.00
2023-03-01T02:33:40.870Z,215498.00
2023-03-01T02:39:50.140Z,215518.00
2023-03-01T02:45:54.647Z,215585.00
2023-03-01T02:52:17.252Z,215571.00
2023-03-01T02:58:19.426Z,215571.00
2023-03-01T03:04:22.326Z,215546.00
2023-03-01T03:10:31.306Z,215546.00
2023-03-01T03:16:34.143Z,215571.00
2023-03-01T03:22:36.595Z,215557.00
2023-03-01T03:28:41.153Z,215571.00
2023-03-01T03:34:43.582Z,215546.00
2023-03-01T03:40:49.129Z,215518.00
2023-03-01T03:46:51.438Z,215557.00
2023-03-01T03:52:54.330Z,215484.00
2023-03-01T03:58:56.570Z,215518.00
2023-03-01T04:04:58.581Z,215498.00
2023-03-01T04:11:25.562Z,215518.00
2023-03-01T04:17:28.126Z,215518.00
2023-03-01T04:23:30.375Z,215518.00
2023-03-01T04:29:32.428Z,215512.00
2023-03-01T04:35:35.857Z,215498.00
2023-03-01T04:41:39.687Z,215518.00
2023-03-01T04:47:44.086Z,215498.00
2023-03-01T04:53:46.294Z,215498.00
2023-03-01T04:59:48.647Z,215512.00
2023-03-01T05:05:53.370Z,215492.00
2023-03-01T05:11:55.698Z,215484.00
2023-03-01T05:18:00.704Z,215571.00
2023-03-01T05:24:03.375Z,215585.00
2023-03-01T05:30:14.608Z,215605.00
2023-03-01T05:36:16.602Z,215646.00
2023-03-01T05:42:19.557Z,215654.00
2023-03-01T05:48:22.015Z,215605.00
2023-03-01T05:54:24.192Z,215591.00
2023-03-01T06:00:26.639Z,215626.00
2023-03-01T06:06:29.430Z,215646.00
2023-03-01T06:12:34.103Z,215626.00
2023-03-01T06:18:37.130Z,215599.00
2023-03-01T06:24:41.884Z,215646.00
2023-03-01T06:30:44.210Z,215694.00
2023-03-01T06:36:47.557Z,215694.00
2023-03-01T06:42:51.351Z,215646.00
2023-03-01T06:48:53.540Z,215720.00
2023-03-01T06:54:55.665Z,215742.00
2023-03-01T07:00:57.945Z,215755.00
2023-03-01T07:07:01.619Z,215680.00
2023-03-01T07:13:03.880Z,215767.00
2023-03-01T07:19:07.006Z,215755.00
2023-03-01T07:25:10.153Z,215816.00
2023-03-01T07:31:12.340Z,215828.00
2023-03-01T07:37:14.650Z,215895.00
2023-03-01T07:43:16.982Z,215951.00
2023-03-01T07:49:19.137Z,215965.00
2023-03-01T07:55:21.367Z,216026.00
2023-03-01T08:01:23.742Z,216013.00
2023-03-01T08:07:25.813Z,215951.00
2023-03-01T08:13:28.111Z,215951.00
2023-03-01T08:19:30.732Z,216054.00
2023-03-01T08:25:32.741Z,212050.00
2023-03-01T08:31:38.706Z,212050.00
2023-03-01T08:37:40.955Z,212106.00
2023-03-01T08:43:43.344Z,212154.00
2023-03-01T08:49:45.433Z,212146.00
2023-03-01T08:55:49.908Z,212215.00
2023-03-01T09:01:52.615Z,212317.00
2023-03-01T09:07:54.791Z,212447.00
2023-03-01T09:13:57.300Z,212519.00
2023-03-01T09:20:01.036Z,212638.00
2023-03-01T09:26:03.770Z,212714.00
2023-03-01T09:32:06.191Z,212700.00
2023-03-01T09:38:08.375Z,212788.00
2023-03-01T09:44:35.941Z,212794.00
2023-03-01T09:50:41.700Z,212766.00
2023-03-01T09:57:08.768Z,212794.00
2023-03-01T10:03:45.528Z,212741.00
2023-03-01T10:09:48.357Z,212632.00
2023-03-01T10:15:56.480Z,212834.00
2023-03-01T10:22:06.855Z,213067.00
2023-03-01T10:28:21.132Z,213117.00
2023-03-01T10:34:31.778Z,213117.00
2023-03-01T10:40:35.734Z,212975.00
2023-03-01T10:46:38.738Z,213047.00
2023-03-01T10:52:42.834Z,213047.00
2023-03-01T10:59:05.606Z,213137.00
2023-03-01T11:05:25.121Z,213200.00
2023-03-01T11:11:33.041Z,213053.00
2023-03-01T11:17:53.222Z,213117.00
2023-03-01T11:24:00.166Z,213025.00
2023-03-01T11:31:08.247Z,213067.00
2023-03-01T11:37:23.558Z,213164.00
2023-03-01T11:43:35.692Z,213212.00
2023-03-01T11:49:56.809Z,213272.00
2023-03-01T11:56:08.227Z,213461.00
2023-03-01T12:02:45.519Z,213681.00
2023-03-01T12:09:01.877Z,213844.00
2023-03-01T12:15:45.598Z,213830.00
2023-03-01T12:22:03.576Z,213872.00
2023-03-01T12:28:24.156Z,213688.00
2023-03-01T12:34:51.017Z,213631.00
2023-03-01T12:41:11.317Z,213611.00
2023-03-01T12:47:55.251Z,213542.00
2023-03-01T12:54:00.219Z,213509.00
2023-03-01T13:00:25.535Z,213589.00
2023-03-01T13:07:01.905Z,213398.00
2023-03-01T13:13:14.753Z,213272.00
2023-03-01T13:19:28.126Z,213272.00
2023-03-01T13:25:37.739Z,213328.00
2023-03-01T13:31:58.235Z,213467.00
2023-03-01T13:38:38.286Z,213473.00
2023-03-01T13:44:42.551Z,213473.00
2023-03-01T13:51:08.051Z,213384.00
2023-03-01T13:57:23.358Z,213308.00
2023-03-01T14:03:26.378Z,213170.00
2023-03-01T14:09:33.538Z,213170.00
2023-03-01T14:15:50.091Z,213081.00
2023-03-01T14:22:05.350Z,213067.00
2023-03-01T14:28:19.626Z,213061.00
2023-03-01T14:34:26.344Z,213081.00
2023-03-01T14:40:35.193Z,213097.00
2023-03-01T14:46:41.033Z,213025.00
2023-03-01T14:52:47.926Z,212959.00
2023-03-01T14:58:54.608Z,212961.00
2023-03-01T15:05:02.566Z,212975.00
2023-03-01T15:11:18.251Z,212945.00
2023-03-01T15:17:32.606Z,212897.00
2023-03-01T15:23:35.661Z,212883.00
2023-03-01T15:29:42.279Z,212808.00
2023-03-01T15:35:49.585Z,212794.00
2023-03-01T15:41:52.153Z,212788.00
2023-03-01T15:47:59.132Z,212735.00
2023-03-01T15:54:06.169Z,212680.00
2023-03-01T16:00:14.883Z,212692.00
2023-03-01T16:06:17.170Z,212733.00
2023-03-01T16:12:22.690Z,212692.00
2023-03-01T16:18:25.146Z,212686.00
2023-03-01T16:24:27.871Z,212596.00
2023-03-01T16:30:30.202Z,212616.00
2023-03-01T16:36:32.562Z,212569.00
2023-03-01T16:42:40.534Z,212535.00
2023-03-01T16:48:43.010Z,212549.00
2023-03-01T16:54:45.314Z,212507.00
2023-03-01T17:00:47.625Z,212507.00
2023-03-01T17:06:50.410Z,212499.00
2023-03-01T17:12:52.612Z,212468.00
2023-03-01T17:18:54.954Z,212441.00
2023-03-01T17:24:57.366Z,212399.00
2023-03-01T17:31:05.524Z,212399.00
2023-03-01T17:37:07.734Z,212329.00
2023-03-01T17:43:10.490Z,212351.00
2023-03-01T17:49:13.323Z,212357.00
2023-03-01T17:55:15.812Z,212357.00
2023-03-01T18:01:20.344Z,212357.00
2023-03-01T18:07:22.752Z,212371.00
2023-03-01T18:13:25.311Z,212316.00
2023-03-01T18:19:28.723Z,212331.00
2023-03-01T18:25:31.304Z,212357.00
2023-03-01T18:31:34.266Z,212337.00
2023-03-01T18:37:36.474Z,212379.00
2023-03-01T18:43:38.849Z,212357.00
2023-03-01T18:49:41.142Z,212262.00
2023-03-01T18:55:43.322Z,212234.00
2023-03-01T19:01:45.781Z,212168.00
2023-03-01T19:07:48.574Z,212160.00
2023-03-01T19:13:52.217Z,212168.00
2023-03-01T19:19:55.075Z,212134.00
2023-03-01T19:26:06.807Z,212120.00
2023-03-01T19:32:09.039Z,212092.00
2023-03-01T19:38:11.146Z,212106.00
2023-03-01T19:44:13.475Z,212092.00
2023-03-01T19:50:15.832Z,212106.00
2023-03-01T19:56:18.066Z,212134.00
2023-03-01T20:02:20.378Z,212092.00
2023-03-01T20:08:22.959Z,212066.00
2023-03-01T20:14:25.252Z,212066.00
2023-03-01T20:20:27.650Z,212031.00
2023-03-01T20:26:30.425Z,211983.00
2023-03-01T20:32:33.517Z,211989.00
2023-03-01T20:38:36.186Z,216054.00
2023-03-01T20:44:43.347Z,212011.00
2023-03-01T20:50:45.619Z,212011.00
2023-03-01T20:56:48.157Z,211983.00
2023-03-01T21:02:50.574Z,211977.00
2023-03-01T21:08:54.239Z,211977.00
2023-03-01T21:14:56.381Z,216054.00
2023-03-01T21:21:02.868Z,215993.00
2023-03-01T21:27:06.983Z,215979.00
2023-03-01T21:33:09.487Z,215923.00
2023-03-01T21:39:13.077Z,215895.00
2023-03-01T21:45:15.368Z,215895.00
2023-03-01T21:51:20.865Z,215903.00
2023-03-01T21:57:23.292Z,215917.00
2023-03-01T22:03:25.706Z,215931.00
2023-03-01T22:09:27.779Z,215951.00
2023-03-01T22:15:29.809Z,215965.00
2023-03-01T22:21:31.902Z,215993.00
2023-03-01T22:27:34.561Z,215993.00
2023-03-01T22:33:36.622Z,216001.00
2023-03-01T22:39:38.886Z,215987.00
2023-03-01T22:45:41.162Z,216013.00
2023-03-01T22:51:44.501Z,215971.00
2023-03-01T22:57:50.587Z,215965.00
2023-03-01T23:03:52.878Z,215965.00
2023-03-01T23:09:54.884Z,215959.00
2023-03-01T23:15:57.978Z,215971.00
2023-03-01T23:22:00.265Z,215917.00
2023-03-01T23:28:02.842Z,215875.00
2023-03-01T23:34:04.861Z,215875.00
2023-03-01T23:40:07.439Z,215814.00
2023-03-01T23:46:14.701Z,215728.00
2023-03-01T23:52:17.652Z,215734.00
2023-03-01T23:58:20.407Z,215694.00
